sensor_id;sensor_type;location;lat;lon;timestamp;P1;durP1;ratioP1;P2;durP2;ratioP2
5622;SDS011;2833;50.432;10.706;2024-02-16T00:00:08;11.60;;;7.43;;
5622;SDS011;2833;50.432;10.706;2024-02-16T00:02:36;9.83;;;6.87;;
5622;SDS011;2833;50.432;10.706;2024-02-16T00:05:01;9.57;;;6.37;;
5622;SDS011;2833;50.432;10.706;2024-02-16T00:07:27;8.77;;;6.03;;
5622;SDS011;2833;50.432;10.706;2024-02-16T00:09:52;10.17;;;6.57;;
5622;SDS011;2833;50.432;10.706;2024-02-16T00:12:17;8.20;;;5.73;;
5622;SDS011;2833;50.432;10.706;2024-02-16T00:14:42;7.80;;;5.43;;
5622;SDS011;2833;50.432;10.706;2024-02-16T00:17:08;6.30;;;5.43;;
5622;SDS011;2833;50.432;10.706;2024-02-16T00:19:35;6.50;;;5.30;;
5622;SDS011;2833;50.432;10.706;2024-02-16T00:22:00;6.77;;;5.20;;
5622;SDS011;2833;50.432;10.706;2024-02-16T00:24:25;8.50;;;6.23;;
5622;SDS011;2833;50.432;10.706;2024-02-16T00:26:50;7.63;;;6.27;;
5622;SDS011;2833;50.432;10.706;2024-02-16T00:29:16;7.93;;;5.40;;
5622;SDS011;2833;50.432;10.706;2024-02-16T00:31:41;8.10;;;5.67;;
5622;SDS011;2833;50.432;10.706;2024-02-16T00:34:06;6.60;;;5.67;;
5622;SDS011;2833;50.432;10.706;2024-02-16T00:36:32;7.90;;;5.30;;
5622;SDS011;2833;50.432;10.706;2024-02-16T00:38:59;7.93;;;6.03;;
5622;SDS011;2833;50.432;10.706;2024-02-16T00:41:24;6.23;;;5.60;;
5622;SDS011;2833;50.432;10.706;2024-02-16T00:43:49;9.47;;;5.93;;
5622;SDS011;2833;50.432;10.706;2024-02-16T00:46:15;10.70;;;7.10;;
5622;SDS011;2833;50.432;10.706;2024-02-16T00:48:40;7.87;;;6.00;;
5622;SDS011;2833;50.432;10.706;2024-02-16T00:51:06;7.10;;;5.87;;
5622;SDS011;2833;50.432;10.706;2024-02-16T00:53:31;6.57;;;5.40;;
5622;SDS011;2833;50.432;10.706;2024-02-16T00:55:56;7.10;;;5.77;;
5622;SDS011;2833;50.432;10.706;2024-02-16T00:58:21;8.07;;;5.37;;
5622;SDS011;2833;50.432;10.706;2024-02-16T01:00:46;7.47;;;5.80;;
5622;SDS011;2833;50.432;10.706;2024-02-16T01:03:12;7.60;;;5.50;;
5622;SDS011;2833;50.432;10.706;2024-02-16T01:05:40;8.23;;;6.00;;
5622;SDS011;2833;50.432;10.706;2024-02-16T01:08:06;10.30;;;5.67;;
5622;SDS011;2833;50.432;10.706;2024-02-16T01:10:31;7.70;;;5.57;;
5622;SDS011;2833;50.432;10.706;2024-02-16T01:12:56;7.07;;;5.93;;
5622;SDS011;2833;50.432;10.706;2024-02-16T01:15:21;10.90;;;6.07;;
5622;SDS011;2833;50.432;10.706;2024-02-16T01:17:47;11.43;;;5.70;;
5622;SDS011;2833;50.432;10.706;2024-02-16T01:20:12;8.87;;;6.40;;
5622;SDS011;2833;50.432;10.706;2024-02-16T01:22:38;7.40;;;5.60;;
5622;SDS011;2833;50.432;10.706;2024-02-16T01:25:03;5.73;;;5.17;;
5622;SDS011;2833;50.432;10.706;2024-02-16T01:27:28;6.90;;;5.70;;
5622;SDS011;2833;50.432;10.706;2024-02-16T01:29:53;9.30;;;6.07;;
5622;SDS011;2833;50.432;10.706;2024-02-16T01:32:18;8.07;;;6.00;;
5622;SDS011;2833;50.432;10.706;2024-02-16T01:34:44;7.43;;;6.17;;
5622;SDS011;2833;50.432;10.706;2024-02-16T01:37:11;8.13;;;5.73;;
5622;SDS011;2833;50.432;10.706;2024-02-16T01:39:37;6.57;;;5.20;;
5622;SDS011;2833;50.432;10.706;2024-02-16T01:42:02;8.77;;;5.30;;
5622;SDS011;2833;50.432;10.706;2024-02-16T01:44:27;8.17;;;5.40;;
5622;SDS011;2833;50.432;10.706;2024-02-16T01:46:52;6.40;;;5.77;;
5622;SDS011;2833;50.432;10.706;2024-02-16T01:49:17;7.37;;;5.40;;
5622;SDS011;2833;50.432;10.706;2024-02-16T01:51:43;7.47;;;6.43;;
5622;SDS011;2833;50.432;10.706;2024-02-16T01:54:09;8.63;;;5.70;;
5622;SDS011;2833;50.432;10.706;2024-02-16T01:56:35;8.83;;;5.80;;
5622;SDS011;2833;50.432;10.706;2024-02-16T01:59:00;6.23;;;5.63;;
5622;SDS011;2833;50.432;10.706;2024-02-16T02:01:25;8.90;;;5.97;;
5622;SDS011;2833;50.432;10.706;2024-02-16T02:03:50;11.13;;;6.43;;
5622;SDS011;2833;50.432;10.706;2024-02-16T02:06:16;10.00;;;6.47;;
5622;SDS011;2833;50.432;10.706;2024-02-16T02:08:41;8.50;;;6.97;;
5622;SDS011;2833;50.432;10.706;2024-02-16T02:11:06;8.87;;;6.10;;
5622;SDS011;2833;50.432;10.706;2024-02-16T02:13:31;7.23;;;5.70;;
5622;SDS011;2833;50.432;10.706;2024-02-16T02:15:58;8.80;;;5.90;;
5622;SDS011;2833;50.432;10.706;2024-02-16T02:18:23;8.73;;;6.40;;
5622;SDS011;2833;50.432;10.706;2024-02-16T02:20:49;15.83;;;8.60;;
5622;SDS011;2833;50.432;10.706;2024-02-16T02:23:15;8.70;;;6.30;;
5622;SDS011;2833;50.432;10.706;2024-02-16T02:25:40;6.30;;;5.37;;
5622;SDS011;2833;50.432;10.706;2024-02-16T02:28:05;7.53;;;5.50;;
5622;SDS011;2833;50.432;10.706;2024-02-16T02:30:30;8.40;;;6.10;;
5622;SDS011;2833;50.432;10.706;2024-02-16T02:32:56;5.90;;;5.30;;
5622;SDS011;2833;50.432;10.706;2024-02-16T02:35:21;5.60;;;5.00;;
5622;SDS011;2833;50.432;10.706;2024-02-16T02:37:46;7.87;;;5.30;;
5622;SDS011;2833;50.432;10.706;2024-02-16T02:40:11;7.80;;;5.53;;
5622;SDS011;2833;50.432;10.706;2024-02-16T02:42:37;7.20;;;4.93;;
5622;SDS011;2833;50.432;10.706;2024-02-16T02:45:02;6.90;;;5.90;;
5622;SDS011;2833;50.432;10.706;2024-02-16T02:47:27;8.87;;;6.53;;
5622;SDS011;2833;50.432;10.706;2024-02-16T02:49:53;8.17;;;6.50;;
5622;SDS011;2833;50.432;10.706;2024-02-16T02:52:18;10.73;;;6.53;;
5622;SDS011;2833;50.432;10.706;2024-02-16T02:54:43;7.37;;;5.73;;
5622;SDS011;2833;50.432;10.706;2024-02-16T02:57:09;6.97;;;5.53;;
5622;SDS011;2833;50.432;10.706;2024-02-16T02:59:34;7.97;;;5.50;;
5622;SDS011;2833;50.432;10.706;2024-02-16T03:01:59;6.33;;;5.33;;
5622;SDS011;2833;50.432;10.706;2024-02-16T03:04:24;5.10;;;4.40;;
5622;SDS011;2833;50.432;10.706;2024-02-16T03:06:53;7.70;;;5.17;;
5622;SDS011;2833;50.432;10.706;2024-02-16T03:09:18;6.60;;;5.57;;
5622;SDS011;2833;50.432;10.706;2024-02-16T03:11:43;7.63;;;6.50;;
5622;SDS011;2833;50.432;10.706;2024-02-16T03:14:08;5.70;;;4.90;;
5622;SDS011;2833;50.432;10.706;2024-02-16T03:16:34;7.80;;;6.00;;
5622;SDS011;2833;50.432;10.706;2024-02-16T03:18:59;8.53;;;6.20;;
5622;SDS011;2833;50.432;10.706;2024-02-16T03:21:24;7.47;;;5.80;;
5622;SDS011;2833;50.432;10.706;2024-02-16T03:23:50;9.27;;;6.07;;
5622;SDS011;2833;50.432;10.706;2024-02-16T03:26:15;9.00;;;6.23;;
5622;SDS011;2833;50.432;10.706;2024-02-16T03:28:41;8.07;;;5.70;;
5622;SDS011;2833;50.432;10.706;2024-02-16T03:31:14;7.07;;;5.60;;
5622;SDS011;2833;50.432;10.706;2024-02-16T03:33:39;7.13;;;5.43;;
5622;SDS011;2833;50.432;10.706;2024-02-16T03:36:04;8.70;;;5.77;;
5622;SDS011;2833;50.432;10.706;2024-02-16T03:38:30;7.27;;;5.50;;
5622;SDS011;2833;50.432;10.706;2024-02-16T03:40:55;7.80;;;6.20;;
5622;SDS011;2833;50.432;10.706;2024-02-16T03:43:21;7.70;;;5.90;;
5622;SDS011;2833;50.432;10.706;2024-02-16T03:45:46;8.47;;;5.93;;
5622;SDS011;2833;50.432;10.706;2024-02-16T03:48:11;6.30;;;5.27;;
5622;SDS011;2833;50.432;10.706;2024-02-16T03:50:36;9.17;;;6.27;;
5622;SDS011;2833;50.432;10.706;2024-02-16T03:53:01;10.20;;;7.30;;
5622;SDS011;2833;50.432;10.706;2024-02-16T03:55:27;8.73;;;6.03;;
5622;SDS011;2833;50.432;10.706;2024-02-16T03:57:52;9.70;;;6.60;;
5622;SDS011;2833;50.432;10.706;2024-02-16T04:00:17;8.47;;;5.90;;
5622;SDS011;2833;50.432;10.706;2024-02-16T04:02:42;7.93;;;5.00;;
5622;SDS011;2833;50.432;10.706;2024-02-16T04:05:07;8.90;;;5.40;;
5622;SDS011;2833;50.432;10.706;2024-02-16T04:07:33;9.23;;;6.83;;
5622;SDS011;2833;50.432;10.706;2024-02-16T04:09:59;9.60;;;6.33;;
5622;SDS011;2833;50.432;10.706;2024-02-16T04:12:25;9.83;;;7.00;;
5622;SDS011;2833;50.432;10.706;2024-02-16T04:14:50;7.63;;;5.43;;
5622;SDS011;2833;50.432;10.706;2024-02-16T04:17:15;7.83;;;5.30;;
5622;SDS011;2833;50.432;10.706;2024-02-16T04:19:40;8.33;;;5.37;;
5622;SDS011;2833;50.432;10.706;2024-02-16T04:22:06;7.10;;;5.63;;
5622;SDS011;2833;50.432;10.706;2024-02-16T04:24:32;8.07;;;5.00;;
5622;SDS011;2833;50.432;10.706;2024-02-16T04:26:57;7.33;;;5.47;;
5622;SDS011;2833;50.432;10.706;2024-02-16T04:29:22;6.70;;;5.37;;
5622;SDS011;2833;50.432;10.706;2024-02-16T04:31:47;7.87;;;5.40;;
5622;SDS011;2833;50.432;10.706;2024-02-16T04:34:13;7.07;;;5.20;;
5622;SDS011;2833;50.432;10.706;2024-02-16T04:36:38;12.20;;;5.77;;
5622;SDS011;2833;50.432;10.706;2024-02-16T04:39:04;10.17;;;5.87;;
5622;SDS011;2833;50.432;10.706;2024-02-16T04:41:29;7.87;;;6.37;;
5622;SDS011;2833;50.432;10.706;2024-02-16T04:43:54;5.97;;;5.37;;
5622;SDS011;2833;50.432;10.706;2024-02-16T04:46:19;8.73;;;4.73;;
5622;SDS011;2833;50.432;10.706;2024-02-16T04:48:45;7.27;;;5.60;;
5622;SDS011;2833;50.432;10.706;2024-02-16T04:51:10;6.33;;;4.83;;
5622;SDS011;2833;50.432;10.706;2024-02-16T04:53:36;8.50;;;6.57;;
5622;SDS011;2833;50.432;10.706;2024-02-16T04:56:01;7.07;;;5.70;;
5622;SDS011;2833;50.432;10.706;2024-02-16T04:58:27;8.40;;;5.17;;
5622;SDS011;2833;50.432;10.706;2024-02-16T05:00:52;12.00;;;5.87;;
5622;SDS011;2833;50.432;10.706;2024-02-16T05:03:17;9.37;;;5.60;;
5622;SDS011;2833;50.432;10.706;2024-02-16T05:05:42;7.20;;;5.23;;
5622;SDS011;2833;50.432;10.706;2024-02-16T05:08:09;8.40;;;5.90;;
5622;SDS011;2833;50.432;10.706;2024-02-16T05:10:34;5.90;;;5.30;;
5622;SDS011;2833;50.432;10.706;2024-02-16T05:12:59;7.73;;;5.77;;
5622;SDS011;2833;50.432;10.706;2024-02-16T05:15:24;7.63;;;6.37;;
5622;SDS011;2833;50.432;10.706;2024-02-16T05:17:49;7.07;;;5.70;;
5622;SDS011;2833;50.432;10.706;2024-02-16T05:20:15;6.70;;;5.27;;
5622;SDS011;2833;50.432;10.706;2024-02-16T05:22:44;10.13;;;5.80;;
5622;SDS011;2833;50.432;10.706;2024-02-16T05:25:11;11.43;;;6.63;;
5622;SDS011;2833;50.432;10.706;2024-02-16T05:27:36;9.47;;;5.47;;
5622;SDS011;2833;50.432;10.706;2024-02-16T05:30:02;11.30;;;6.73;;
5622;SDS011;2833;50.432;10.706;2024-02-16T05:32:29;6.63;;;5.93;;
5622;SDS011;2833;50.432;10.706;2024-02-16T05:34:54;7.30;;;5.70;;
5622;SDS011;2833;50.432;10.706;2024-02-16T05:37:19;8.37;;;6.10;;
5622;SDS011;2833;50.432;10.706;2024-02-16T05:39:45;7.07;;;5.13;;
5622;SDS011;2833;50.432;10.706;2024-02-16T05:42:22;8.20;;;5.23;;
5622;SDS011;2833;50.432;10.706;2024-02-16T05:44:47;6.93;;;4.83;;
5622;SDS011;2833;50.432;10.706;2024-02-16T05:47:13;7.50;;;5.07;;
5622;SDS011;2833;50.432;10.706;2024-02-16T05:49:38;6.50;;;5.30;;
5622;SDS011;2833;50.432;10.706;2024-02-16T05:52:05;9.40;;;6.20;;
5622;SDS011;2833;50.432;10.706;2024-02-16T05:54:50;8.00;;;6.87;;
5622;SDS011;2833;50.432;10.706;2024-02-16T05:57:15;10.20;;;6.33;;
5622;SDS011;2833;50.432;10.706;2024-02-16T05:59:41;10.53;;;5.70;;
5622;SDS011;2833;50.432;10.706;2024-02-16T06:02:06;7.50;;;5.93;;
5622;SDS011;2833;50.432;10.706;2024-02-16T06:06:59;7.30;;;5.67;;
5622;SDS011;2833;50.432;10.706;2024-02-16T06:09:25;7.53;;;5.97;;
5622;SDS011;2833;50.432;10.706;2024-02-16T06:11:50;7.47;;;5.47;;
5622;SDS011;2833;50.432;10.706;2024-02-16T06:14:16;8.13;;;5.97;;
5622;SDS011;2833;50.432;10.706;2024-02-16T06:16:41;6.90;;;5.57;;
5622;SDS011;2833;50.432;10.706;2024-02-16T06:19:25;8.20;;;5.90;;
5622;SDS011;2833;50.432;10.706;2024-02-16T06:21:51;11.63;;;5.67;;
5622;SDS011;2833;50.432;10.706;2024-02-16T06:24:16;7.80;;;5.70;;
5622;SDS011;2833;50.432;10.706;2024-02-16T06:26:42;7.33;;;5.80;;
5622;SDS011;2833;50.432;10.706;2024-02-16T06:29:08;5.70;;;5.10;;
5622;SDS011;2833;50.432;10.706;2024-02-16T06:31:33;7.37;;;5.00;;
5622;SDS011;2833;50.432;10.706;2024-02-16T06:33:58;6.83;;;5.70;;
5622;SDS011;2833;50.432;10.706;2024-02-16T06:36:24;7.07;;;5.30;;
5622;SDS011;2833;50.432;10.706;2024-02-16T06:38:49;6.93;;;5.13;;
5622;SDS011;2833;50.432;10.706;2024-02-16T06:41:14;11.20;;;6.90;;
5622;SDS011;2833;50.432;10.706;2024-02-16T06:43:39;57.97;;;26.20;;
5622;SDS011;2833;50.432;10.706;2024-02-16T06:46:05;14.33;;;9.30;;
5622;SDS011;2833;50.432;10.706;2024-02-16T06:48:30;7.63;;;5.70;;
5622;SDS011;2833;50.432;10.706;2024-02-16T06:50:55;8.50;;;5.97;;
5622;SDS011;2833;50.432;10.706;2024-02-16T06:53:20;8.93;;;6.50;;
5622;SDS011;2833;50.432;10.706;2024-02-16T06:55:46;10.23;;;5.90;;
5622;SDS011;2833;50.432;10.706;2024-02-16T06:58:11;7.10;;;6.33;;
5622;SDS011;2833;50.432;10.706;2024-02-16T07:00:36;8.67;;;7.07;;
5622;SDS011;2833;50.432;10.706;2024-02-16T07:03:01;15.07;;;9.00;;
5622;SDS011;2833;50.432;10.706;2024-02-16T07:05:27;10.33;;;7.60;;
5622;SDS011;2833;50.432;10.706;2024-02-16T07:07:53;13.93;;;7.53;;
5622;SDS011;2833;50.432;10.706;2024-02-16T07:10:18;10.20;;;8.00;;
5622;SDS011;2833;50.432;10.706;2024-02-16T07:12:43;12.87;;;9.47;;
5622;SDS011;2833;50.432;10.706;2024-02-16T07:15:10;12.63;;;8.80;;
5622;SDS011;2833;50.432;10.706;2024-02-16T07:17:35;15.60;;;10.07;;
5622;SDS011;2833;50.432;10.706;2024-02-16T07:20:01;11.60;;;7.97;;
5622;SDS011;2833;50.432;10.706;2024-02-16T07:22:32;15.43;;;10.67;;
5622;SDS011;2833;50.432;10.706;2024-02-16T07:24:58;18.87;;;12.10;;
5622;SDS011;2833;50.432;10.706;2024-02-16T07:27:25;18.00;;;10.60;;
5622;SDS011;2833;50.432;10.706;2024-02-16T07:29:50;33.87;;;18.40;;
5622;SDS011;2833;50.432;10.706;2024-02-16T07:32:15;28.67;;;17.27;;
5622;SDS011;2833;50.432;10.706;2024-02-16T07:34:44;24.00;;;12.17;;
5622;SDS011;2833;50.432;10.706;2024-02-16T07:37:10;21.90;;;12.50;;
5622;SDS011;2833;50.432;10.706;2024-02-16T07:39:35;18.07;;;10.40;;
5622;SDS011;2833;50.432;10.706;2024-02-16T07:42:00;13.90;;;9.27;;
5622;SDS011;2833;50.432;10.706;2024-02-16T07:44:27;18.63;;;10.97;;
5622;SDS011;2833;50.432;10.706;2024-02-16T07:46:52;14.73;;;8.60;;
5622;SDS011;2833;50.432;10.706;2024-02-16T07:49:17;20.23;;;11.30;;
5622;SDS011;2833;50.432;10.706;2024-02-16T07:51:43;24.53;;;14.57;;
5622;SDS011;2833;50.432;10.706;2024-02-16T07:54:08;9.07;;;7.13;;
5622;SDS011;2833;50.432;10.706;2024-02-16T07:56:33;9.80;;;7.10;;
5622;SDS011;2833;50.432;10.706;2024-02-16T07:58:58;8.07;;;5.80;;
5622;SDS011;2833;50.432;10.706;2024-02-16T08:01:23;11.50;;;7.20;;
5622;SDS011;2833;50.432;10.706;2024-02-16T08:03:48;13.53;;;8.90;;
5622;SDS011;2833;50.432;10.706;2024-02-16T08:06:14;14.37;;;7.70;;
5622;SDS011;2833;50.432;10.706;2024-02-16T08:08:41;9.40;;;6.23;;
5622;SDS011;2833;50.432;10.706;2024-02-16T08:11:06;10.97;;;6.00;;
5622;SDS011;2833;50.432;10.706;2024-02-16T08:13:31;8.67;;;5.90;;
5622;SDS011;2833;50.432;10.706;2024-02-16T08:15:56;12.70;;;7.67;;
5622;SDS011;2833;50.432;10.706;2024-02-16T08:18:22;15.10;;;9.50;;
5622;SDS011;2833;50.432;10.706;2024-02-16T08:20:47;15.63;;;9.20;;
5622;SDS011;2833;50.432;10.706;2024-02-16T08:23:12;12.20;;;8.40;;
5622;SDS011;2833;50.432;10.706;2024-02-16T08:25:38;23.40;;;12.90;;
5622;SDS011;2833;50.432;10.706;2024-02-16T08:28:03;19.27;;;11.20;;
5622;SDS011;2833;50.432;10.706;2024-02-16T08:30:28;10.97;;;7.77;;
5622;SDS011;2833;50.432;10.706;2024-02-16T08:32:53;10.40;;;6.43;;
5622;SDS011;2833;50.432;10.706;2024-02-16T08:35:19;7.33;;;6.00;;
5622;SDS011;2833;50.432;10.706;2024-02-16T08:37:44;9.67;;;6.07;;
5622;SDS011;2833;50.432;10.706;2024-02-16T08:40:12;9.17;;;5.90;;
5622;SDS011;2833;50.432;10.706;2024-02-16T08:42:39;7.93;;;5.67;;
5622;SDS011;2833;50.432;10.706;2024-02-16T08:45:04;12.63;;;6.30;;
5622;SDS011;2833;50.432;10.706;2024-02-16T08:47:29;7.60;;;6.00;;
5622;SDS011;2833;50.432;10.706;2024-02-16T08:49:54;7.87;;;5.47;;
5622;SDS011;2833;50.432;10.706;2024-02-16T08:52:20;7.50;;;5.83;;
5622;SDS011;2833;50.432;10.706;2024-02-16T08:54:45;8.00;;;5.60;;
5622;SDS011;2833;50.432;10.706;2024-02-16T08:57:10;12.50;;;6.80;;
5622;SDS011;2833;50.432;10.706;2024-02-16T08:59:35;9.47;;;6.30;;
5622;SDS011;2833;50.432;10.706;2024-02-16T09:02:00;8.17;;;6.03;;
5622;SDS011;2833;50.432;10.706;2024-02-16T09:04:26;8.87;;;6.70;;
5622;SDS011;2833;50.432;10.706;2024-02-16T09:06:53;17.97;;;12.40;;
5622;SDS011;2833;50.432;10.706;2024-02-16T09:09:19;8.40;;;6.23;;
5622;SDS011;2833;50.432;10.706;2024-02-16T09:11:44;12.67;;;8.53;;
5622;SDS011;2833;50.432;10.706;2024-02-16T09:14:09;19.73;;;11.13;;
5622;SDS011;2833;50.432;10.706;2024-02-16T09:16:35;19.47;;;10.30;;
5622;SDS011;2833;50.432;10.706;2024-02-16T09:19:00;15.47;;;9.10;;
5622;SDS011;2833;50.432;10.706;2024-02-16T09:21:25;16.83;;;11.20;;
5622;SDS011;2833;50.432;10.706;2024-02-16T09:23:53;14.43;;;9.30;;
5622;SDS011;2833;50.432;10.706;2024-02-16T09:26:18;10.13;;;7.23;;
5622;SDS011;2833;50.432;10.706;2024-02-16T09:28:43;11.83;;;7.50;;
5622;SDS011;2833;50.432;10.706;2024-02-16T09:31:09;14.67;;;8.60;;
5622;SDS011;2833;50.432;10.706;2024-02-16T09:33:34;11.50;;;7.20;;
5622;SDS011;2833;50.432;10.706;2024-02-16T09:36:02;14.20;;;8.67;;
5622;SDS011;2833;50.432;10.706;2024-02-16T09:38:29;18.00;;;11.00;;
5622;SDS011;2833;50.432;10.706;2024-02-16T09:40:55;17.07;;;11.43;;
5622;SDS011;2833;50.432;10.706;2024-02-16T09:43:23;13.30;;;8.50;;
5622;SDS011;2833;50.432;10.706;2024-02-16T09:45:51;27.00;;;14.73;;
5622;SDS011;2833;50.432;10.706;2024-02-16T09:48:17;15.20;;;9.73;;
5622;SDS011;2833;50.432;10.706;2024-02-16T09:50:42;13.20;;;7.80;;
5622;SDS011;2833;50.432;10.706;2024-02-16T09:53:07;11.33;;;7.87;;
5622;SDS011;2833;50.432;10.706;2024-02-16T09:55:34;18.80;;;11.10;;
5622;SDS011;2833;50.432;10.706;2024-02-16T09:57:59;39.70;;;23.03;;
5622;SDS011;2833;50.432;10.706;2024-02-16T10:00:25;29.80;;;19.00;;
5622;SDS011;2833;50.432;10.706;2024-02-16T10:02:50;28.00;;;15.30;;
5622;SDS011;2833;50.432;10.706;2024-02-16T10:05:24;29.83;;;19.20;;
5622;SDS011;2833;50.432;10.706;2024-02-16T10:07:50;22.87;;;13.90;;
5622;SDS011;2833;50.432;10.706;2024-02-16T10:12:49;17.10;;;10.47;;
5622;SDS011;2833;50.432;10.706;2024-02-16T10:15:21;13.33;;;8.40;;
5622;SDS011;2833;50.432;10.706;2024-02-16T10:17:57;10.97;;;7.53;;
5622;SDS011;2833;50.432;10.706;2024-02-16T10:20:22;11.37;;;7.37;;
5622;SDS011;2833;50.432;10.706;2024-02-16T10:22:48;18.13;;;9.07;;
5622;SDS011;2833;50.432;10.706;2024-02-16T10:25:13;11.00;;;8.40;;
5622;SDS011;2833;50.432;10.706;2024-02-16T10:27:39;11.83;;;7.70;;
5622;SDS011;2833;50.432;10.706;2024-02-16T10:30:05;8.97;;;6.57;;
5622;SDS011;2833;50.432;10.706;2024-02-16T10:32:34;11.10;;;7.03;;
5622;SDS011;2833;50.432;10.706;2024-02-16T10:35:00;10.50;;;7.47;;
5622;SDS011;2833;50.432;10.706;2024-02-16T10:37:27;12.00;;;8.50;;
5622;SDS011;2833;50.432;10.706;2024-02-16T10:39:52;13.80;;;8.10;;
5622;SDS011;2833;50.432;10.706;2024-02-16T10:42:18;14.27;;;6.77;;
5622;SDS011;2833;50.432;10.706;2024-02-16T10:44:44;10.23;;;6.97;;
5622;SDS011;2833;50.432;10.706;2024-02-16T10:47:10;12.93;;;8.67;;
5622;SDS011;2833;50.432;10.706;2024-02-16T10:49:35;13.47;;;9.20;;
5622;SDS011;2833;50.432;10.706;2024-02-16T10:52:00;15.30;;;8.33;;
5622;SDS011;2833;50.432;10.706;2024-02-16T10:54:30;13.63;;;9.00;;
5622;SDS011;2833;50.432;10.706;2024-02-16T10:56:57;14.93;;;9.10;;
5622;SDS011;2833;50.432;10.706;2024-02-16T10:59:22;10.87;;;8.47;;
5622;SDS011;2833;50.432;10.706;2024-02-16T11:01:48;14.73;;;10.00;;
5622;SDS011;2833;50.432;10.706;2024-02-16T11:04:23;12.20;;;8.90;;
5622;SDS011;2833;50.432;10.706;2024-02-16T11:06:49;11.87;;;7.33;;
5622;SDS011;2833;50.432;10.706;2024-02-16T11:09:29;20.03;;;12.47;;
5622;SDS011;2833;50.432;10.706;2024-02-16T11:11:55;15.27;;;9.80;;
5622;SDS011;2833;50.432;10.706;2024-02-16T11:14:23;15.80;;;9.47;;
5622;SDS011;2833;50.432;10.706;2024-02-16T11:16:49;14.10;;;8.43;;
5622;SDS011;2833;50.432;10.706;2024-02-16T11:19:14;26.70;;;10.00;;
5622;SDS011;2833;50.432;10.706;2024-02-16T11:21:54;20.07;;;11.30;;
5622;SDS011;2833;50.432;10.706;2024-02-16T11:24:27;17.20;;;10.07;;
5622;SDS011;2833;50.432;10.706;2024-02-16T11:26:52;13.83;;;8.83;;
5622;SDS011;2833;50.432;10.706;2024-02-16T11:29:19;14.57;;;8.77;;
5622;SDS011;2833;50.432;10.706;2024-02-16T11:31:45;14.50;;;10.30;;
5622;SDS011;2833;50.432;10.706;2024-02-16T11:34:10;10.47;;;6.53;;
5622;SDS011;2833;50.432;10.706;2024-02-16T11:36:45;14.40;;;7.87;;
5622;SDS011;2833;50.432;10.706;2024-02-16T11:39:14;20.20;;;7.90;;
5622;SDS011;2833;50.432;10.706;2024-02-16T11:41:41;17.07;;;10.53;;
5622;SDS011;2833;50.432;10.706;2024-02-16T11:44:06;15.13;;;8.40;;
5622;SDS011;2833;50.432;10.706;2024-02-16T11:46:31;11.30;;;8.50;;
5622;SDS011;2833;50.432;10.706;2024-02-16T11:49:04;20.30;;;8.40;;
5622;SDS011;2833;50.432;10.706;2024-02-16T11:51:29;11.83;;;7.83;;
5622;SDS011;2833;50.432;10.706;2024-02-16T11:53:55;14.70;;;8.07;;
5622;SDS011;2833;50.432;10.706;2024-02-16T11:56:21;8.97;;;7.50;;
5622;SDS011;2833;50.432;10.706;2024-02-16T11:58:47;11.67;;;7.97;;
5622;SDS011;2833;50.432;10.706;2024-02-16T12:01:12;20.07;;;12.40;;
5622;SDS011;2833;50.432;10.706;2024-02-16T12:03:37;23.13;;;12.37;;
5622;SDS011;2833;50.432;10.706;2024-02-16T12:06:05;27.90;;;14.43;;
5622;SDS011;2833;50.432;10.706;2024-02-16T12:08:34;24.07;;;13.00;;
5622;SDS011;2833;50.432;10.706;2024-02-16T12:10:59;23.77;;;12.10;;
5622;SDS011;2833;50.432;10.706;2024-02-16T12:13:25;22.30;;;12.37;;
5622;SDS011;2833;50.432;10.706;2024-02-16T12:15:50;28.90;;;12.73;;
5622;SDS011;2833;50.432;10.706;2024-02-16T12:18:22;18.27;;;10.50;;
5622;SDS011;2833;50.432;10.706;2024-02-16T12:21:00;11.67;;;8.10;;
5622;SDS011;2833;50.432;10.706;2024-02-16T12:23:25;19.20;;;11.67;;
5622;SDS011;2833;50.432;10.706;2024-02-16T12:25:51;15.30;;;11.40;;
5622;SDS011;2833;50.432;10.706;2024-02-16T12:28:16;12.87;;;9.17;;
5622;SDS011;2833;50.432;10.706;2024-02-16T12:30:41;14.73;;;9.60;;
5622;SDS011;2833;50.432;10.706;2024-02-16T12:33:06;15.43;;;9.87;;
5622;SDS011;2833;50.432;10.706;2024-02-16T12:35:32;10.73;;;8.03;;
5622;SDS011;2833;50.432;10.706;2024-02-16T12:37:57;14.40;;;9.03;;
5622;SDS011;2833;50.432;10.706;2024-02-16T12:40:22;12.27;;;8.30;;
5622;SDS011;2833;50.432;10.706;2024-02-16T12:42:47;10.63;;;6.93;;
5622;SDS011;2833;50.432;10.706;2024-02-16T12:45:13;10.00;;;5.80;;
5622;SDS011;2833;50.432;10.706;2024-02-16T12:47:38;11.33;;;6.70;;
5622;SDS011;2833;50.432;10.706;2024-02-16T12:50:03;7.00;;;5.47;;
5622;SDS011;2833;50.432;10.706;2024-02-16T12:52:29;9.97;;;6.70;;
5622;SDS011;2833;50.432;10.706;2024-02-16T12:54:55;9.00;;;7.10;;
5622;SDS011;2833;50.432;10.706;2024-02-16T12:57:23;10.00;;;6.60;;
5622;SDS011;2833;50.432;10.706;2024-02-16T12:59:48;7.17;;;5.60;;
5622;SDS011;2833;50.432;10.706;2024-02-16T13:02:14;9.90;;;6.70;;
5622;SDS011;2833;50.432;10.706;2024-02-16T13:04:39;9.73;;;6.87;;
5622;SDS011;2833;50.432;10.706;2024-02-16T13:07:05;8.63;;;6.70;;
5622;SDS011;2833;50.432;10.706;2024-02-16T13:09:30;9.57;;;7.27;;
5622;SDS011;2833;50.432;10.706;2024-02-16T13:11:55;11.57;;;7.63;;
5622;SDS011;2833;50.432;10.706;2024-02-16T13:14:21;11.77;;;7.87;;
5622;SDS011;2833;50.432;10.706;2024-02-16T13:16:46;10.33;;;7.70;;
5622;SDS011;2833;50.432;10.706;2024-02-16T13:19:12;12.20;;;8.30;;
5622;SDS011;2833;50.432;10.706;2024-02-16T13:21:38;13.00;;;8.27;;
5622;SDS011;2833;50.432;10.706;2024-02-16T13:24:03;13.43;;;8.00;;
5622;SDS011;2833;50.432;10.706;2024-02-16T13:26:29;9.33;;;5.47;;
5622;SDS011;2833;50.432;10.706;2024-02-16T13:28:55;10.70;;;7.80;;
5622;SDS011;2833;50.432;10.706;2024-02-16T13:31:20;13.50;;;8.70;;
5622;SDS011;2833;50.432;10.706;2024-02-16T13:33:45;14.03;;;8.10;;
5622;SDS011;2833;50.432;10.706;2024-02-16T13:36:11;10.63;;;7.37;;
5622;SDS011;2833;50.432;10.706;2024-02-16T13:38:36;11.70;;;7.70;;
5622;SDS011;2833;50.432;10.706;2024-02-16T13:41:01;12.47;;;8.20;;
5622;SDS011;2833;50.432;10.706;2024-02-16T13:43:26;17.27;;;10.47;;
5622;SDS011;2833;50.432;10.706;2024-02-16T13:45:53;9.50;;;6.90;;
5622;SDS011;2833;50.432;10.706;2024-02-16T13:48:18;8.20;;;6.00;;
5622;SDS011;2833;50.432;10.706;2024-02-16T13:50:44;20.20;;;10.73;;
5622;SDS011;2833;50.432;10.706;2024-02-16T13:53:10;21.53;;;11.30;;
5622;SDS011;2833;50.432;10.706;2024-02-16T13:55:35;12.80;;;8.77;;
5622;SDS011;2833;50.432;10.706;2024-02-16T13:58:00;8.10;;;6.30;;
5622;SDS011;2833;50.432;10.706;2024-02-16T14:00:25;13.80;;;9.00;;
5622;SDS011;2833;50.432;10.706;2024-02-16T14:02:51;10.53;;;7.00;;
5622;SDS011;2833;50.432;10.706;2024-02-16T14:05:16;8.10;;;6.30;;
5622;SDS011;2833;50.432;10.706;2024-02-16T14:07:41;11.43;;;7.30;;
5622;SDS011;2833;50.432;10.706;2024-02-16T14:10:07;9.47;;;6.50;;
5622;SDS011;2833;50.432;10.706;2024-02-16T14:12:32;8.73;;;6.07;;
5622;SDS011;2833;50.432;10.706;2024-02-16T14:14:57;7.90;;;6.10;;
5622;SDS011;2833;50.432;10.706;2024-02-16T14:17:22;8.20;;;5.57;;
5622;SDS011;2833;50.432;10.706;2024-02-16T14:19:47;13.57;;;9.20;;
5622;SDS011;2833;50.432;10.706;2024-02-16T14:22:13;38.90;;;12.40;;
5622;SDS011;2833;50.432;10.706;2024-02-16T14:24:38;25.13;;;12.13;;
5622;SDS011;2833;50.432;10.706;2024-02-16T14:27:03;13.80;;;7.90;;
5622;SDS011;2833;50.432;10.706;2024-02-16T14:29:28;12.00;;;7.60;;
5622;SDS011;2833;50.432;10.706;2024-02-16T14:31:54;12.57;;;7.70;;
5622;SDS011;2833;50.432;10.706;2024-02-16T14:34:19;8.50;;;6.33;;
5622;SDS011;2833;50.432;10.706;2024-02-16T14:36:44;11.70;;;7.17;;
5622;SDS011;2833;50.432;10.706;2024-02-16T14:39:09;13.37;;;8.10;;
5622;SDS011;2833;50.432;10.706;2024-02-16T14:41:36;12.03;;;6.90;;
5622;SDS011;2833;50.432;10.706;2024-02-16T14:44:01;7.20;;;5.80;;
5622;SDS011;2833;50.432;10.706;2024-02-16T14:46:28;7.83;;;5.17;;
5622;SDS011;2833;50.432;10.706;2024-02-16T14:48:53;7.90;;;5.30;;